»·PEaware :: N1718G KLAS-KLAX

N1718G :: KLAS-KLAX

FLIGHT INFORMATION

Flight Status: Arrived
Operator: Privately registered:
United States
More flights under this callsign
Pilot: Spencer M. (27733)
Aircraft: CESSNA 206 STATIONAIR
(C206)
More flights by this aircraft type
Origin: KLAS McCarran Intl
United States
Destination: KLAX Los Angeles Intl
United States
More flights between these airports :: More routes between these airports
Route: DANBY HESPE KPOC
File this flight plan on PilotEdge
Remarks:
Altitude:
(Current/Filed)
10,500ft
Speed:
(Current/Filed)
160kts
Departed: 18-Mar-20 08:44 PM
Arrived: 18-Mar-20 10:23 PM
Distance/Time
Traveled:
205nm/1:39
Distance/Time
To Go:
Arrived

Flight Plot

Page will automatically refresh every two minutes.

Flight plan parsing failed; only flown route is shown


Map Options




Map Legend


Flown Route
Filed Route
Departure Airport
Arrival Airport
Navaid (VOR, NDB)
Fix

Horizontal Profiles

Position Reports

Time Latitude Longitude Heading Altitude Ground
Speed
18-Mar-20 20:09 36.080698 -115.170739 89 2169ft 0kts
18-Mar-20 20:10 36.080698 -115.170739 89 2169ft 0kts
18-Mar-20 20:11 36.080698 -115.170739 89 2169ft 0kts
18-Mar-20 20:12 36.080698 -115.170739 89 2169ft 0kts
18-Mar-20 20:13 36.080698 -115.170739 89 2169ft 0kts
18-Mar-20 20:14 36.080698 -115.170739 89 2169ft 0kts
18-Mar-20 20:15 36.080698 -115.170739 89 2169ft 0kts
18-Mar-20 20:16 36.080698 -115.170739 89 2169ft 0kts
18-Mar-20 20:17 36.080698 -115.170739 89 2169ft 0kts
18-Mar-20 20:18 36.080698 -115.170739 89 2169ft 0kts
18-Mar-20 20:19 36.080698 -115.170739 89 2169ft 0kts
18-Mar-20 20:20 36.080698 -115.170739 89 2169ft 0kts
18-Mar-20 20:21 36.080698 -115.170739 89 2169ft 0kts
18-Mar-20 20:22 36.080698 -115.170739 89 2169ft 0kts
18-Mar-20 20:23 36.080698 -115.170739 89 2169ft 0kts
18-Mar-20 20:24 36.080698 -115.170739 89 2169ft 0kts
18-Mar-20 20:25 36.080698 -115.170739 89 2169ft 0kts
18-Mar-20 20:26 36.080698 -115.170739 89 2169ft 0kts
18-Mar-20 20:27 36.080698 -115.170739 89 2169ft 0kts
18-Mar-20 20:28 36.080698 -115.170739 89 2169ft 0kts
18-Mar-20 20:29 36.080698 -115.170739 89 2169ft 0kts
18-Mar-20 20:30 36.080698 -115.170739 89 2169ft 0kts
18-Mar-20 20:31 36.080698 -115.170739 89 2169ft 0kts
18-Mar-20 20:32 36.081297 -115.169668 50 2166ft 9kts
18-Mar-20 20:33 36.084225 -115.167666 25 2155ft 15kts
18-Mar-20 20:34 36.088702 -115.165096 25 2136ft 19kts
18-Mar-20 20:35 36.093698 -115.162245 24 2112ft 20kts
18-Mar-20 20:36 36.098418 -115.159556 25 2095ft 15kts
18-Mar-20 20:37 36.100046 -115.157482 120 2085ft 0kts
18-Mar-20 20:38 36.100046 -115.157481 120 2085ft 0kts
18-Mar-20 20:39 36.100046 -115.157482 120 2085ft 0kts
18-Mar-20 20:40 36.100046 -115.157482 120 2085ft 0kts
18-Mar-20 20:41 36.100046 -115.157482 120 2085ft 0kts
18-Mar-20 20:42 36.099961 -115.157337 126 2085ft 5kts
18-Mar-20 20:43 36.085704 -115.164302 203 2364ft 114kts
18-Mar-20 20:44 36.051677 -115.173177 187 3407ft 133kts
18-Mar-20 20:45 36.012424 -115.177999 187 4197ft 148kts
18-Mar-20 20:46 35.971531 -115.183739 186 5037ft 149kts
18-Mar-20 20:47 35.932308 -115.189106 186 5786ft 131kts
18-Mar-20 20:48 35.899901 -115.193453 186 6762ft 106kts
18-Mar-20 20:49 35.873551 -115.196872 186 7715ft 87kts
18-Mar-20 20:50 35.848317 -115.200087 186 8426ft 96kts
18-Mar-20 20:51 35.821151 -115.205576 207 9136ft 103kts
18-Mar-20 20:52 35.795626 -115.223727 214 9845ft 108kts
18-Mar-20 20:53 35.773523 -115.249585 229 10488ft 118kts
18-Mar-20 20:54 35.748019 -115.285999 229 10502ft 154kts
18-Mar-20 20:55 35.719181 -115.327280 229 10500ft 161kts
18-Mar-20 20:56 35.689739 -115.369431 229 10499ft 162kts
18-Mar-20 20:57 35.660218 -115.411690 229 10499ft 163kts
18-Mar-20 20:58 35.630724 -115.453900 229 10499ft 163kts
18-Mar-20 20:59 35.601254 -115.496069 229 10499ft 163kts
18-Mar-20 21:00 35.568192 -115.533862 217 10499ft 163kts
18-Mar-20 21:01 35.531732 -115.566942 219 10500ft 163kts
18-Mar-20 21:02 35.497193 -115.602858 220 10499ft 163kts
18-Mar-20 21:03 35.462982 -115.639192 221 10499ft 163kts
18-Mar-20 21:04 35.428785 -115.675744 220 10499ft 163kts
18-Mar-20 21:05 35.394253 -115.711715 220 10499ft 163kts
18-Mar-20 21:06 35.359751 -115.747642 220 10499ft 163kts
18-Mar-20 21:07 35.325210 -115.783587 220 10499ft 163kts
18-Mar-20 21:08 35.297860 -115.827671 235 10499ft 163kts
18-Mar-20 21:09 35.272142 -115.873243 235 10499ft 163kts
18-Mar-20 21:10 35.246411 -115.918835 235 10499ft 163kts
18-Mar-20 21:11 35.220650 -115.964476 235 10499ft 163kts
18-Mar-20 21:12 35.194883 -116.010122 235 10499ft 163kts
18-Mar-20 21:13 35.169138 -116.055726 235 10499ft 163kts
18-Mar-20 21:14 35.143364 -116.101376 235 10499ft 163kts
18-Mar-20 21:15 35.117619 -116.146973 235 10499ft 163kts
18-Mar-20 21:16 35.091964 -116.192404 235 10499ft 163kts
18-Mar-20 21:17 35.066202 -116.238020 235 10499ft 163kts
18-Mar-20 21:18 35.040475 -116.283570 235 10499ft 163kts
18-Mar-20 21:19 35.014832 -116.328967 235 10499ft 163kts
18-Mar-20 21:20 34.989070 -116.374571 235 10499ft 163kts
18-Mar-20 21:21 34.963433 -116.419950 235 10499ft 163kts
18-Mar-20 21:22 34.937654 -116.465573 235 10499ft 163kts
18-Mar-20 21:23 34.911944 -116.511072 235 10499ft 163kts
18-Mar-20 21:24 34.886240 -116.556557 235 10499ft 163kts
18-Mar-20 21:25 34.860538 -116.602031 236 10499ft 163kts
18-Mar-20 21:26 34.834777 -116.647608 236 10499ft 163kts
18-Mar-20 21:27 34.809025 -116.693163 235 10499ft 163kts
18-Mar-20 21:28 34.783326 -116.738622 235 10499ft 163kts
18-Mar-20 21:29 34.757117 -116.783482 232 10499ft 163kts
18-Mar-20 21:30 34.729518 -116.827207 232 10499ft 163kts
18-Mar-20 21:31 34.701940 -116.870885 232 10499ft 163kts
18-Mar-20 21:32 34.674320 -116.914624 232 10499ft 163kts
18-Mar-20 21:33 34.646738 -116.958294 232 10499ft 163kts
18-Mar-20 21:34 34.619136 -117.001991 232 10499ft 163kts
18-Mar-20 21:35 34.591505 -117.045725 232 10499ft 163kts
18-Mar-20 21:36 34.563654 -117.089257 229 10499ft 163kts
18-Mar-20 21:37 34.534185 -117.131197 229 10499ft 163kts
18-Mar-20 21:38 34.504786 -117.172982 229 10499ft 163kts
18-Mar-20 21:39 34.475372 -117.214779 229 10499ft 163kts
18-Mar-20 21:40 34.445963 -117.256560 229 10499ft 163kts
18-Mar-20 21:41 34.415897 -117.297597 218 10498ft 163kts
18-Mar-20 21:42 34.378940 -117.329343 213 10499ft 163kts
18-Mar-20 21:43 34.339067 -117.359549 210 10150ft 174kts
18-Mar-20 21:44 34.296719 -117.388643 210 9758ft 175kts
18-Mar-20 21:46 34.254525 -117.417615 210 9408ft 174kts
18-Mar-20 21:47 34.215188 -117.450857 223 9039ft 173kts
18-Mar-20 21:48 34.189710 -117.499812 242 8659ft 172kts
18-Mar-20 21:49 34.167068 -117.550537 244 8271ft 172kts
18-Mar-20 21:50 34.148796 -117.603459 248 7920ft 170kts
18-Mar-20 21:51 34.132045 -117.657105 251 7568ft 170kts
18-Mar-20 21:52 34.115926 -117.710448 249 7231ft 169kts
18-Mar-20 21:53 34.099842 -117.762771 249 6690ft 167kts
18-Mar-20 21:54 34.086386 -117.816175 254 6043ft 165kts
18-Mar-20 21:55 34.074572 -117.868130 254 5060ft 155kts
18-Mar-20 21:56 34.063319 -117.917550 254 4064ft 147kts
18-Mar-20 21:57 34.062200 -117.958465 282 3995ft 104kts
18-Mar-20 21:58 34.068159 -117.991349 282 4009ft 118kts
18-Mar-20 21:59 34.076532 -118.035243 283 4001ft 142kts
18-Mar-20 22:00 34.086056 -118.082563 283 4000ft 146kts
18-Mar-20 22:01 34.110195 -118.121068 313 3999ft 146kts
18-Mar-20 22:01 34.137126 -118.144171 294 3993ft 144kts
18-Mar-20 22:03 34.139851 -118.200205 272 3999ft 144kts
18-Mar-20 22:04 34.141049 -118.248865 272 4000ft 146kts
18-Mar-20 22:04 34.132231 -118.287403 238 3999ft 146kts
18-Mar-20 22:06 34.103860 -118.333502 232 3998ft 143kts
18-Mar-20 22:07 34.081880 -118.367355 234 3828ft 121kts
18-Mar-20 22:07 34.064309 -118.394449 235 3145ft 123kts
18-Mar-20 22:08 34.042938 -118.424941 227 2681ft 115kts
18-Mar-20 22:10 34.014078 -118.449682 174 2879ft 112kts
18-Mar-20 22:10 34.009021 -118.422820 72 2740ft 114kts
18-Mar-20 22:11 34.018188 -118.387179 72 2764ft 112kts
18-Mar-20 22:12 34.027853 -118.347717 73 2806ft 137kts
18-Mar-20 22:13 34.040142 -118.302333 72 2801ft 143kts
18-Mar-20 22:14 34.043779 -118.255980 131 2784ft 144kts
18-Mar-20 22:15 34.005435 -118.247364 177 2817ft 130kts
18-Mar-20 22:16 33.970179 -118.243173 178 2768ft 119kts
18-Mar-20 22:17 33.950096 -118.263447 261 2012ft 102kts
18-Mar-20 22:18 33.946409 -118.297330 265 1493ft 103kts
18-Mar-20 22:19 33.943242 -118.326765 261 1294ft 84kts
18-Mar-20 22:20 33.940280 -118.354596 262 767ft 84kts
18-Mar-20 22:21 33.937334 -118.382244 263 147ft 78kts
18-Mar-20 22:23 33.935394 -118.390704 169 102ft 16kts
18-Mar-20 22:23 33.934005 -118.390621 173 102ft 0kts

Navigation Log

Ident Type
Flight plan parsing failed, navigation log unavailable